Tallulah, Louisiana
Current Conditions -  °F | °C
As of 11:53 AM on Sunday 21 Dec 2014 (Local Time) from KTVR Reporting Station
Clear Clear  
Wind Chill: 56°   Ceiling: Unl
Heat Index: 56°   Visibility: 10mi
Dew Point: 46°   Wind: 5mph
Humidity: 69%   Direction: 110°ESE
Pressure: 30.1"   Gusts: NA
Location:  32.41°N, 91.19°W
Report Text: KTVR 211753Z AUTO 11004KT 10SM CLR 13/08 A3010 RMK AO2 SLP198 T01330078 10133 21006 58022
Loading
Personal Weather Stations






























Interactive Weather Map New forecast layout! Learn more

10-Day Weather Forecast

Advertisements
Track Severe Weather on mobile